Home   Weather   Australia   Launceston   Past weeks
Flag for Australia

Past Weather in Launceston, Tasmania, Australia — Yesterday and Last 2 Weeks

Currently: 45 °F. Clear. (Weather station: Launceston Airport, Australia). See more current weather

Past Weather in Launceston — Graph

°F

Launceston Temperature Yesterday

Maximum temperature yesterday: 64 °F (at 12:13 pm)
Minimum temperature yesterday: 48 °F (at 9:00 pm)
Average temperature yesterday: 56 °F

High & Low Weather Summary for the Past Weeks

 TemperatureHumidityPressure
High79 °F (Apr 3, 2:00 pm)100% (Apr 1, 2:30 am)30.30 "Hg (Apr 1, 2:30 am)
Low34 °F (Apr 10, 11:00 pm)29% (Apr 4, 2:00 pm)29.42 "Hg (Apr 10, 8:30 am)
Average55 °F72%29.90 "Hg
* Reported Mar 31 10:00 pm — Apr 15 9:00 pm, Launceston. Weather by CustomWeather, © 2021

Note: Actual official high and low records may vary slightly from our data, if they occured in-between our weather recording intervals... More about our weather records

Launceston Weather History for the Previous 24 Hours

Scroll right to see more
 ConditionsComfort  
Time TempWeatherWind HumidityBarometerVisibility
9:00 pm
Thu, Apr 15
45 °FClear.8 mph66%29.86 "HgN/A
8:30 pm43 °FPassing clouds.9 mph71%29.86 "HgN/A
8:00 pm45 °FPassing clouds.7 mph66%29.83 "HgN/A
7:30 pm45 °FPassing clouds.7 mph66%29.83 "HgN/A
7:00 pm46 °FPassing clouds.7 mph66%29.80 "HgN/A
6:30 pm48 °FPassing clouds.6 mph62%29.80 "HgN/A
6:00 pm50 °FPassing clouds.8 mph58%29.77 "HgN/A
5:30 pm52 °FScattered clouds.9 mph50%29.74 "HgN/A
5:00 pm55 °FScattered clouds.15 mph47%29.74 "HgN/A
4:30 pm55 °FScattered clouds.17 mph44%29.71 "HgN/A
4:00 pm57 °FScattered clouds.22 mph41%29.68 "HgN/A
3:30 pm59 °FSunny.23 mph36%29.68 "HgN/A
3:00 pm61 °FSunny.18 mph31%29.65 "HgN/A
2:30 pm63 °FSunny.22 mph32%29.65 "HgN/A
2:00 pm61 °FSunny.23 mph29%29.65 "HgN/A
1:30 pm61 °FScattered clouds.24 mph29%29.65 "HgN/A
1:00 pm61 °FMostly cloudy.17 mph52%29.65 "HgN/A
12:30 pm61 °FScattered clouds.18 mph55%29.65 "HgN/A
12:00 pm59 °FCloudy.21 mph55%29.65 "HgN/A
11:30 am59 °FBroken clouds.21 mph59%29.65 "HgN/A
11:14 am57 °FMostly cloudy.20 mph59%29.65 "HgN/A
11:00 am57 °FMostly cloudy.20 mph63%29.65 "HgN/A
10:30 am57 °FOvercast.17 mph63%29.68 "HgN/A
10:00 am57 °FScattered clouds.18 mph59%29.68 "HgN/A
9:30 am57 °FSunny.20 mph59%29.68 "HgN/A
9:00 am55 °FScattered clouds.17 mph67%29.68 "HgN/A
8:30 am55 °FSunny.17 mph67%29.68 "HgN/A
8:00 am52 °FSunny.15 mph77%29.68 "HgN/A
7:30 am52 °FScattered clouds.15 mph77%29.68 "HgN/A
7:00 am50 °FScattered clouds.15 mph82%29.68 "HgN/A
6:30 am52 °FPassing clouds.20 mph77%29.68 "HgN/A
5:30 am50 °FPassing clouds.16 mph76%29.68 "HgN/A
5:00 am50 °FPassing clouds.17 mph76%29.68 "HgN/A
4:30 am50 °FPassing clouds.16 mph76%29.68 "HgN/A
4:00 am48 °FClear.16 mph82%29.68 "HgN/A
3:30 am50 °FPassing clouds.17 mph76%29.68 "HgN/A
3:00 am50 °FPassing clouds.17 mph71%29.68 "HgN/A
2:30 am48 °FPassing clouds.14 mph76%29.71 "HgN/A
2:00 am48 °FPassing clouds.12 mph76%29.71 "HgN/A
1:30 am48 °FPassing clouds.14 mph76%29.71 "HgN/A
1:00 am48 °FClear.16 mph76%29.71 "HgN/A
12:30 am48 °FClear.16 mph76%29.68 "HgN/A
12:00 am48 °FPassing clouds.15 mph76%29.68 "HgN/A
11:30 pm
Wed, Apr 14
48 °FClear.14 mph76%29.68 "HgN/A
11:00 pm48 °FClear.15 mph76%29.68 "HgN/A
10:30 pm48 °FClear.15 mph71%29.68 "HgN/A
10:00 pm48 °FClear.14 mph71%29.68 "HgN/A
9:30 pm48 °FClear.13 mph71%29.68 "HgN/A
9:00 pm48 °FClear.10 mph71%29.68 "HgN/A
Weather by CustomWeather, © 2021

See weather overview